Aviation Digital Data Service (ADDS)

Output produced by METARs form (1306 UTC 27 February 2015)
found at http://aviationweather.gov/adds/metars/
 
KDAG 271250Z AUTO 27010KT 10SM CLR 08/01 A2977 RMK AO2 SLP067 T00830011
KDAG 271120Z 2712/2812 25013KT P6SM SKC 
     FM272100 26026G36KT P6SM FEW150 SCT250 
     FM280700 25020G29KT P6SM FEW250
       
KEDW 271258Z AUTO 25011KT 10SM CLR 10/02 A2975 RMK AO2 SLP065 T01000020
TAF KEDW 2710/2816 25009KT 9999 SCT260 QNH2978INS 
     TEMPO 2710/2717 25012G18KT 
     BECMG 2717/2718 25015G25KT 9999 FEW200 SCT300 520009 QNH2968INS 
     TEMPO 2720/2802 26025G35KT 530009 
     TEMPO 2802/2806 26020G30KT 
     BECMG 2806/2807 24015G20KT 9999 BKN040 510003 QNH2970INS TX19/2723Z TN04/2714Z
       
KVCV 271255Z AUTO 16006KT 10SM 07/00 A2977 RMK AO2
KONT 271253Z 33004KT 6SM BR SCT013 BKN250 09/08 A2982 RMK AO2 SLP095 T00940083
KONT 271137Z 2712/2818 VRB05KT P6SM SCT250 
     FM271400 VRB05KT 5SM BR BKN010 
     FM271800 VRB05KT 5SM BR HZ SCT015 SCT250 
     FM272100 25010KT P6SM FEW020 SCT110 SCT250 
     FM280200 30010G15KT P6SM BKN020 BKN050 OVC250
       
KSNA 271253Z 12004KT 10SM OVC022 14/09 A2982 RMK AO2 SLP097 T01440089
KSNA 271137Z 2712/2812 VRB05KT P6SM OVC015 
     FM271600 VRB05KT P6SM BKN015 
     FM272000 24008KT P6SM SCT020 BKN250 
     FM280100 25010KT P6SM BKN020 BKN250
       
KSAN 271251Z 11006KT 10SM BKN031 14/09 A2985 RMK AO2 SLP106 T01440094
KSAN 271137Z 2712/2818 VRB05KT P6SM BKN020 BKN250 
     FM272000 20010KT P6SM SCT020 BKN250 
     FM280000 23010KT P6SM BKN025 BKN250
       
KNID 271256Z AUTO 00000KT CLR 05/02 A2975 RMK AO2 SLP071 T00500022 $
TAF KNID 2623/2723 VRB06KT 9999 BKN270 QNH2986INS 
     TEMPO 2701/2705 23012G18KT 
     BECMG 2718/2720 24012G22KT 9999 FEW050 FEW150 SCT250 510009 QNH2951INS 
     BECMG 2720/2722 24025G35KT 9999 FEW050 FEW150 SCT250 530009 QNH2985INS T04/2715Z T19/2722Z LAST NO AMD AFT 2706/ NEXT 0215
       
KNXP 271256Z AUTO 32008KT 10SM CLR 12/M01 A2982 RMK AO2 SLP850 T01221006
TAF KNXP 2709/2809 36011G20KT 9999 SCT200 BKN250 542209 542909 543802 QNH2983INS 
     FM271130 28008KT 9999 FEW200 BKN250 542209 542909 543802 QNH2982INS 
     BECMG 2718/2720 30012G18KT 9999 BKN200 542209 542909 543802 QNH2969INS AUTOMATED SENSOR METWATCH 2709 TIL 2715 T09/2713Z T23/2722Z
       
KPSP 271253Z AUTO 18004KT 10SM CLR 12/07 A2972 RMK AO2 SLP064 T01170067 TSNO
KPSP 271137Z 2712/2812 VRB05KT P6SM SCT250 
     FM272100 28010G15KT P6SM SCT250
       
KLAX 271253Z 08003KT 10SM FEW012 BKN017 12/11 A2983 RMK AO2 SLP099 T01170106 $
KLAX 271132Z 2712/2818 VRB03KT P6SM OVC015 
     FM271600 VRB03KT P6SM OVC022 
     FM272100 26012KT P6SM SCT025 BKN080 
     FM280300 28012KT P6SM BKN025 BKN080 
     FM281300 28010KT P6SM VCSH OVC035
       
KCNO 271253Z AUTO 00000KT 6SM BR CLR 08/07 A2984 RMK AO2 SLP102 T00830072
KSMO 271251Z 00000KT 9SM SCT013 OVC020 13/11 A2983 RMK AO2 SLP099 T01330106 $
KLGB 271253Z 00000KT 10SM BKN021 BKN026 13/10 A2982 RMK AO2 SLP098 T01280100
KLGB 271132Z 2712/2812 VRB03KT P6SM OVC018 
     FM271400 VRB03KT P6SM OVC022 
     FM272000 19008KT P6SM SCT025 
     FM280100 26010KT P6SM BKN025 BKN080 
     FM281100 28007KT P6SM OVC035
       
KVNY 271251Z 00000KT 10SM FEW008 OVC015 11/08 A2982 RMK AO2 SLP093 T01110083
KVNY 271132Z 2712/2812 VRB03KT 4SM BR BKN007 
     FM271900 15008KT P6SM SCT020 
     FM280300 VRB03KT P6SM BKN025
       
KBUR 271253Z 33003KT 9SM OVC016 12/09 A2982 RMK AO2 SLP089 T01170089
KBUR 271132Z 2712/2812 VRB03KT P6SM BKN010 
     FM271900 17008KT P6SM SCT020 
     FM280300 VRB03KT P6SM BKN025
       
KBFL 271254Z AUTO 09007KT 9SM CLR 10/04 A2982 RMK AO2 SLP096 T01000044
KBFL 271142Z 2712/2812 VRB05KT P6SM SCT200 
     FM271900 30010KT P6SM SCT050 BKN100 
     FM280300 33012KT P6SM VCSH SCT030 BKN040
       
KPMD 271253Z AUTO 14004KT 10SM CLR 06/01 A2980 RMK AO2 SLP083 T00610006
KPMD 271132Z 2712/2812 28008KT P6SM SKC 
     FM271800 27015KT P6SM SKC 
     FM272100 26020G30KT P6SM SCT150 
     FM280500 26015G23KT P6SM BKN035
       
KOXR 271251Z AUTO 00000KT 10SM OVC011 12/09 A2981 RMK AO2 SLP094 T01170089
KOXR 271132Z 2712/2812 VRB03KT P6SM OVC010 
     FM272000 26012KT P6SM BKN020 
     FM280700 VRB03KT P6SM OVC015
       
KWJF 271256Z AUTO 25018KT 10SM CLR 11/02 A2979 RMK AO2 SLP084 T01060022
KWJF 271132Z 2712/2812 26015G20KT P6SM SCT250 
     FM271900 26025G35KT P6SM SKC 
     FM280600 25017G25KT P6SM BKN035
       
KCMA 271255Z 02004KT 10SM OVC012 12/09 A2981 RMK AO2 SLP103 T01220094
KFAT 271253Z 00000KT 6SM HZ BKN200 08/06 A2984 RMK AO2 SLP103 T00830056
KFAT 271142Z 2712/2812 VRB03KT 6SM HZ SCT200 
     FM271800 30008KT P6SM SCT050 BKN080 
     FM280000 31013G19KT P6SM VCSH SCT030 BKN040 
     FM280800 32008KT P6SM BKN030
       
KEED 271256Z AUTO 30006KT 10SM CLR 13/M01 A2974 RMK AO2 SLP053 T01281006
KEED 271120Z 2712/2812 32004KT P6SM FEW250 
     FM271700 01007KT P6SM SCT250 
     FM272100 21013KT P6SM FEW150 SCT250 
     FM280900 25007KT P6SM SCT150 SCT250
       
KLSV 271258Z AUTO 03012KT 10SM FEW150 11/M06 A2977 RMK AO2 SLP072 T01141060
TAF KLSV 2709/2815 03012KT 9999 FEW110 QNH2975INS 
     BECMG 2720/2721 21012G18KT 9999 BKN110 QNH2972INS 
     BECMG 2810/2811 25015G25KT 9999 SCT110 QNH2976INS TX20/2722Z TN05/2712Z
       
KLAS 271256Z 20008KT 10SM FEW120 SCT250 09/M03 A2974 RMK AO2 SLP061 T00891028
KLAS 271120Z 2712/2812 08006KT P6SM SCT250 
     FM271700 15006KT P6SM FEW150 SCT250 
     FM280000 19011KT P6SM FEW150 SCT250 
     FM280300 21015G23KT P6SM FEW150 SCT250
       
KHII 271255Z AUTO 14003KT 10SM OVC075 12/M03 A2973 RMK AO2
KIFP 271255Z AUTO 01015G19KT 10SM CLR 15/M01 A2974 RMK AO2 PWINO